createdAt,value
2018-09-25T00:01:22.801Z,8.30
2018-09-25T00:03:56.460Z,8.30
2018-09-25T00:06:30.110Z,8.30
2018-09-25T00:09:03.722Z,8.40
2018-09-25T00:11:37.414Z,8.40
2018-09-25T00:14:11.010Z,8.30
2018-09-25T00:16:44.763Z,8.30
2018-09-25T00:19:18.425Z,8.40
2018-09-25T00:21:52.039Z,8.40
2018-09-25T00:24:25.665Z,8.30
2018-09-25T00:26:59.319Z,8.30
2018-09-25T00:29:33.080Z,8.30
2018-09-25T00:32:06.656Z,8.20
2018-09-25T00:34:40.382Z,8.30
2018-09-25T00:37:13.934Z,8.30
2018-09-25T00:39:47.446Z,8.20
2018-09-25T00:42:20.977Z,8.20
2018-09-25T00:44:54.694Z,8.10
2018-09-25T00:47:28.330Z,8.10
2018-09-25T00:50:01.899Z,8.10
2018-09-25T00:52:35.586Z,8.00
2018-09-25T00:55:09.189Z,8.00
2018-09-25T00:57:42.868Z,8.00
2018-09-25T01:00:16.368Z,7.90
2018-09-25T01:02:49.983Z,7.90
2018-09-25T01:05:23.725Z,7.80
2018-09-25T01:07:57.384Z,7.80
2018-09-25T01:10:30.981Z,7.80
2018-09-25T01:13:04.566Z,7.80
2018-09-25T01:15:38.287Z,7.70
2018-09-25T01:18:11.699Z,7.60
2018-09-25T01:20:45.495Z,7.50
2018-09-25T01:23:19.130Z,7.40
2018-09-25T01:25:52.702Z,7.30
2018-09-25T01:28:26.403Z,7.20
2018-09-25T01:31:00.120Z,7.20
2018-09-25T01:33:33.915Z,7.20
2018-09-25T01:36:07.700Z,7.20
2018-09-25T01:38:41.329Z,7.10
2018-09-25T01:41:14.982Z,7.00
2018-09-25T01:43:48.761Z,7.00
2018-09-25T01:46:22.504Z,7.00
2018-09-25T01:48:56.095Z,6.90
2018-09-25T01:51:29.819Z,6.80
2018-09-25T01:54:03.658Z,6.80
2018-09-25T01:56:37.460Z,6.70
2018-09-25T01:59:11.491Z,6.70
2018-09-25T02:01:45.190Z,6.70
2018-09-25T02:04:19.087Z,6.70
2018-09-25T02:06:52.747Z,6.70
2018-09-25T02:09:26.394Z,6.60
2018-09-25T02:12:00.166Z,6.60
2018-09-25T02:14:33.905Z,6.60
2018-09-25T02:17:07.497Z,6.60
2018-09-25T02:19:41.119Z,6.60
2018-09-25T02:22:14.916Z,6.60
2018-09-25T02:24:48.584Z,6.50
2018-09-25T02:27:22.182Z,6.40
2018-09-25T02:29:55.927Z,6.30
2018-09-25T02:32:29.458Z,6.30
2018-09-25T02:35:03.132Z,6.20
2018-09-25T02:37:36.836Z,6.10
2018-09-25T02:40:10.400Z,6.10
2018-09-25T02:42:44.092Z,6.00
2018-09-25T02:45:17.850Z,6.00
2018-09-25T02:47:51.535Z,6.10
2018-09-25T02:50:25.037Z,6.00
2018-09-25T02:52:58.781Z,6.10
2018-09-25T02:55:32.513Z,6.00
2018-09-25T02:58:06.087Z,6.00
2018-09-25T03:00:39.814Z,5.90
2018-09-25T03:03:13.520Z,5.90
2018-09-25T03:05:47.372Z,5.80
2018-09-25T03:08:21.095Z,5.70
2018-09-25T03:10:54.749Z,5.80
2018-09-25T03:13:28.468Z,5.70
2018-09-25T03:16:02.070Z,5.60
2018-09-25T03:18:35.705Z,5.50
2018-09-25T03:21:09.439Z,5.50
2018-09-25T03:23:43.334Z,5.40
2018-09-25T03:26:16.782Z,5.30
2018-09-25T03:28:50.576Z,5.30
2018-09-25T03:31:24.253Z,5.20
2018-09-25T03:33:57.811Z,5.20
2018-09-25T03:36:31.441Z,5.10
2018-09-25T03:39:05.239Z,5.10
2018-09-25T03:41:38.951Z,5.00
2018-09-25T03:44:12.606Z,5.10
2018-09-25T03:46:46.459Z,5.10
2018-09-25T03:49:20.222Z,5.20
2018-09-25T03:51:54.034Z,5.20
2018-09-25T03:54:27.786Z,5.20
2018-09-25T03:57:01.692Z,5.10
2018-09-25T03:59:35.528Z,5.10
2018-09-25T04:02:09.227Z,5.00
2018-09-25T04:04:42.770Z,5.00
2018-09-25T04:07:16.538Z,5.00
2018-09-25T04:09:50.138Z,5.10
2018-09-25T04:12:23.934Z,5.20
2018-09-25T04:14:57.636Z,5.20
2018-09-25T04:17:31.261Z,5.20
2018-09-25T04:20:04.927Z,5.10
2018-09-25T04:22:38.583Z,5.10
2018-09-25T04:25:12.315Z,5.10
2018-09-25T04:27:46.168Z,5.10
2018-09-25T04:30:20.063Z,5.10
2018-09-25T04:32:53.703Z,5.10
2018-09-25T04:35:27.390Z,5.00
2018-09-25T04:38:01.307Z,5.00
2018-09-25T04:40:35.089Z,5.00
2018-09-25T04:43:08.911Z,5.00
2018-09-25T04:45:42.701Z,5.00
2018-09-25T04:48:16.362Z,4.90
2018-09-25T04:50:49.947Z,4.90
2018-09-25T04:53:23.621Z,4.90
2018-09-25T04:55:57.393Z,4.90
2018-09-25T04:58:30.977Z,4.90
2018-09-25T05:01:04.651Z,4.90
2018-09-25T05:03:38.428Z,4.90
2018-09-25T05:06:12.131Z,5.00
2018-09-25T05:08:45.822Z,5.00
2018-09-25T05:11:19.549Z,5.00
2018-09-25T05:13:53.290Z,5.00
2018-09-25T05:16:26.951Z,5.10
2018-09-25T05:19:00.716Z,5.20
2018-09-25T05:21:34.463Z,5.20
2018-09-25T05:24:08.242Z,5.30
2018-09-25T05:26:41.991Z,5.40
2018-09-25T05:29:15.677Z,5.40
2018-09-25T05:31:49.385Z,5.40
2018-09-25T05:34:23.102Z,5.40
2018-09-25T05:36:56.838Z,5.40
2018-09-25T05:39:30.497Z,5.30
2018-09-25T05:42:04.034Z,5.30
2018-09-25T05:44:37.730Z,5.40
2018-09-25T05:47:11.908Z,5.30
2018-09-25T05:49:45.753Z,5.40
2018-09-25T05:52:19.354Z,5.40
2018-09-25T05:54:53.149Z,5.50
2018-09-25T05:57:26.907Z,5.60
2018-09-25T06:00:00.494Z,5.80
2018-09-25T06:02:34.227Z,5.90
2018-09-25T06:05:07.907Z,6.00
2018-09-25T06:07:41.717Z,6.10
2018-09-25T06:10:15.381Z,6.20
2018-09-25T06:12:49.183Z,6.50
2018-09-25T06:15:22.795Z,6.60
2018-09-25T06:17:56.446Z,6.80
2018-09-25T06:20:30.180Z,6.90
2018-09-25T06:23:03.744Z,7.00
2018-09-25T06:25:37.487Z,7.20
2018-09-25T06:28:11.198Z,7.50
2018-09-25T06:30:44.974Z,8.10
2018-09-25T06:33:18.741Z,8.50
2018-09-25T06:35:52.511Z,8.90
2018-09-25T06:38:26.130Z,9.10
2018-09-25T06:40:59.791Z,8.90
2018-09-25T06:43:33.333Z,8.80
2018-09-25T06:46:06.944Z,8.80
2018-09-25T06:48:40.647Z,8.70
2018-09-25T06:51:14.425Z,8.60
2018-09-25T06:53:48.135Z,8.70
2018-09-25T06:56:21.841Z,8.70
2018-09-25T06:58:55.526Z,8.70
2018-09-25T07:01:29.309Z,8.60
2018-09-25T07:04:02.959Z,8.60
2018-09-25T07:06:36.722Z,8.50
2018-09-25T07:09:12.415Z,8.50
2018-09-25T07:11:46.103Z,8.50
2018-09-25T07:14:19.805Z,8.50
2018-09-25T07:16:53.322Z,8.70
2018-09-25T07:19:27.055Z,8.80
2018-09-25T07:22:00.659Z,9.00
2018-09-25T07:24:34.506Z,9.00
2018-09-25T07:27:08.055Z,9.20
2018-09-25T07:29:41.894Z,9.30
2018-09-25T07:32:15.528Z,9.30
2018-09-25T07:34:49.145Z,9.30
2018-09-25T07:37:22.834Z,9.50
2018-09-25T07:39:56.274Z,9.70
2018-09-25T07:42:29.975Z,9.80
2018-09-25T07:45:03.493Z,9.90
2018-09-25T07:47:37.175Z,9.80
2018-09-25T07:50:10.777Z,10.00
2018-09-25T07:52:44.497Z,10.00
2018-09-25T07:55:18.186Z,10.00
2018-09-25T07:57:51.771Z,10.10
2018-09-25T08:00:25.595Z,10.10
2018-09-25T08:02:59.255Z,10.10
2018-09-25T08:05:32.907Z,10.30
2018-09-25T08:08:06.559Z,10.50
2018-09-25T08:10:40.301Z,10.80
2018-09-25T08:13:13.962Z,11.00
2018-09-25T08:15:47.646Z,10.90
2018-09-25T08:18:21.352Z,11.20
2018-09-25T08:20:54.950Z,11.60
2018-09-25T08:23:28.661Z,11.80
2018-09-25T08:26:02.370Z,12.00
2018-09-25T08:28:36.185Z,12.00
2018-09-25T08:31:09.807Z,12.10
2018-09-25T08:33:43.498Z,12.40
2018-09-25T08:36:17.242Z,12.20
2018-09-25T08:38:50.992Z,12.20
2018-09-25T08:41:24.530Z,12.70
2018-09-25T08:43:58.218Z,13.10
2018-09-25T08:46:31.697Z,13.50
2018-09-25T08:49:05.394Z,13.90
2018-09-25T08:51:39.080Z,13.90
2018-09-25T08:54:12.602Z,14.70
2018-09-25T08:56:46.386Z,15.30
2018-09-25T08:59:20.013Z,16.30
2018-09-25T09:01:53.538Z,17.50
2018-09-25T09:04:27.123Z,18.30
2018-09-25T09:07:00.826Z,18.30
2018-09-25T09:09:34.487Z,17.80
2018-09-25T09:12:08.180Z,17.40
2018-09-25T09:14:41.883Z,17.10
2018-09-25T09:17:15.540Z,17.90
2018-09-25T09:19:49.020Z,17.60
2018-09-25T09:22:22.742Z,16.70
2018-09-25T09:24:56.406Z,16.80
2018-09-25T09:27:30.006Z,16.90
2018-09-25T09:30:03.736Z,17.60
2018-09-25T09:32:37.373Z,19.10
2018-09-25T09:35:11.160Z,19.60
2018-09-25T09:37:44.870Z,19.60
2018-09-25T09:40:18.696Z,19.10
2018-09-25T09:42:52.282Z,18.90
2018-09-25T09:45:26.051Z,17.90
2018-09-25T09:47:59.823Z,16.20
2018-09-25T09:50:33.372Z,14.80
2018-09-25T09:53:07.042Z,13.90
2018-09-25T09:55:40.780Z,13.40
2018-09-25T09:58:14.414Z,13.10
2018-09-25T10:00:48.097Z,12.90
2018-09-25T10:03:21.766Z,12.70
2018-09-25T10:05:55.302Z,12.60
2018-09-25T10:08:29.192Z,12.30
2018-09-25T10:11:02.777Z,12.20
2018-09-25T10:13:36.483Z,12.20
2018-09-25T10:16:10.013Z,12.20
2018-09-25T10:18:43.761Z,12.20
2018-09-25T10:21:17.344Z,12.10
2018-09-25T10:23:51.059Z,12.10
2018-09-25T10:26:24.623Z,12.30
2018-09-25T10:28:58.298Z,12.40
2018-09-25T10:31:31.806Z,12.40
2018-09-25T10:34:05.679Z,12.30
2018-09-25T10:36:39.218Z,12.20
2018-09-25T10:39:14.045Z,12.20
2018-09-25T10:41:47.729Z,12.30
2018-09-25T10:44:21.455Z,12.40
2018-09-25T10:46:55.159Z,12.30
2018-09-25T10:49:29.010Z,12.40
2018-09-25T10:52:02.687Z,12.50
2018-09-25T10:54:36.230Z,12.50
2018-09-25T10:57:10.019Z,12.50
2018-09-25T10:59:43.723Z,12.70
2018-09-25T11:02:17.286Z,12.80
2018-09-25T11:04:50.979Z,12.70
2018-09-25T11:07:24.755Z,12.70
2018-09-25T11:09:58.541Z,12.80
2018-09-25T11:12:32.327Z,12.70
2018-09-25T11:15:05.926Z,12.80
2018-09-25T11:17:39.794Z,12.80
2018-09-25T11:20:13.355Z,12.80
2018-09-25T11:22:47.011Z,12.90
2018-09-25T11:25:20.636Z,12.90
2018-09-25T11:27:54.334Z,12.90
2018-09-25T11:30:27.841Z,12.90
2018-09-25T11:33:01.342Z,12.90
2018-09-25T11:35:34.956Z,12.90
2018-09-25T11:38:08.493Z,12.90
2018-09-25T11:40:42.244Z,13.00
2018-09-25T11:43:15.950Z,13.10
2018-09-25T11:45:49.780Z,13.10
2018-09-25T11:48:23.395Z,13.00
2018-09-25T11:50:56.962Z,13.00
2018-09-25T11:53:30.680Z,13.00
2018-09-25T11:56:04.339Z,13.00
2018-09-25T11:58:38.148Z,12.90
2018-09-25T12:01:11.691Z,12.90
2018-09-25T12:03:45.380Z,12.80
2018-09-25T12:06:19.307Z,12.80
2018-09-25T12:08:53.058Z,12.90
2018-09-25T12:11:26.663Z,13.00
2018-09-25T12:14:00.338Z,13.00
2018-09-25T12:16:34.031Z,13.00
2018-09-25T12:19:07.714Z,13.00
2018-09-25T12:21:41.471Z,13.00
2018-09-25T12:24:15.062Z,13.00
2018-09-25T12:26:48.721Z,13.10
2018-09-25T12:29:22.594Z,13.10
2018-09-25T12:31:56.412Z,13.30
2018-09-25T12:34:30.040Z,13.30
2018-09-25T12:37:03.643Z,13.50
2018-09-25T12:39:37.247Z,13.40
2018-09-25T12:42:10.948Z,13.30
2018-09-25T12:44:44.494Z,13.30
2018-09-25T12:47:18.226Z,13.30
2018-09-25T12:49:51.802Z,13.20
2018-09-25T12:52:25.466Z,13.20
2018-09-25T12:54:59.268Z,13.20
2018-09-25T12:57:32.936Z,13.30
2018-09-25T13:00:06.546Z,13.40
2018-09-25T13:02:40.218Z,13.40
2018-09-25T13:05:13.878Z,13.50
2018-09-25T13:07:47.693Z,13.60
2018-09-25T13:10:21.501Z,13.70
2018-09-25T13:12:55.150Z,13.60
2018-09-25T13:15:28.866Z,13.50
2018-09-25T13:18:02.438Z,13.50
2018-09-25T13:20:36.250Z,13.40
2018-09-25T13:23:09.987Z,13.40
2018-09-25T13:25:43.625Z,13.40
2018-09-25T13:28:17.211Z,13.50
2018-09-25T13:30:51.008Z,13.60
2018-09-25T13:33:24.875Z,13.60
2018-09-25T13:35:58.401Z,13.60
2018-09-25T13:38:32.190Z,13.60
2018-09-25T13:41:05.910Z,13.50
2018-09-25T13:43:39.572Z,13.60
2018-09-25T13:46:13.414Z,13.70
2018-09-25T13:48:47.054Z,13.70
2018-09-25T13:51:20.847Z,13.80
2018-09-25T13:53:54.553Z,13.90
2018-09-25T13:56:28.199Z,13.90
2018-09-25T13:59:01.938Z,14.00
2018-09-25T14:01:35.735Z,13.90
2018-09-25T14:04:09.438Z,13.90
2018-09-25T14:06:43.113Z,13.80
2018-09-25T14:09:16.883Z,13.90
2018-09-25T14:11:50.828Z,13.90
2018-09-25T14:14:24.654Z,13.90
2018-09-25T14:16:58.287Z,13.80
2018-09-25T14:19:31.978Z,13.80
2018-09-25T14:22:05.640Z,13.80
2018-09-25T14:24:39.441Z,13.80
2018-09-25T14:27:13.035Z,13.80
2018-09-25T14:29:46.656Z,13.80
2018-09-25T14:32:20.205Z,13.80
2018-09-25T14:34:53.964Z,13.80
2018-09-25T14:37:27.700Z,13.70
2018-09-25T14:40:01.377Z,13.70
2018-09-25T14:42:35.124Z,13.70
2018-09-25T14:45:08.893Z,13.70
2018-09-25T14:47:42.654Z,13.80
2018-09-25T14:50:16.266Z,13.80
2018-09-25T14:52:49.980Z,13.90
2018-09-25T14:55:23.703Z,14.00
2018-09-25T14:57:57.406Z,14.00
2018-09-25T15:00:31.078Z,14.00
2018-09-25T15:03:04.678Z,14.00
2018-09-25T15:05:38.390Z,14.00
2018-09-25T15:08:11.996Z,13.90
2018-09-25T15:10:45.790Z,13.80
2018-09-25T15:13:19.300Z,13.80
2018-09-25T15:15:53.004Z,13.80
2018-09-25T15:18:26.875Z,13.80
2018-09-25T15:21:00.596Z,13.80
2018-09-25T15:23:34.218Z,13.90
2018-09-25T15:26:07.967Z,13.90
2018-09-25T15:28:41.650Z,13.90
2018-09-25T15:31:15.367Z,13.80
2018-09-25T15:33:49.107Z,13.80
2018-09-25T15:36:22.686Z,13.90
2018-09-25T15:38:56.375Z,13.80
2018-09-25T15:41:30.344Z,13.90
2018-09-25T15:44:03.947Z,13.80
2018-09-25T15:46:37.473Z,13.80
2018-09-25T15:49:11.257Z,13.70
2018-09-25T15:51:44.807Z,13.70
2018-09-25T15:54:18.432Z,13.70
2018-09-25T15:56:52.066Z,13.70
2018-09-25T15:59:25.815Z,13.60
2018-09-25T16:01:59.583Z,13.60
2018-09-25T16:04:33.154Z,13.60
2018-09-25T16:07:06.634Z,13.60
2018-09-25T16:09:40.321Z,13.50
2018-09-25T16:12:14.072Z,13.50
2018-09-25T16:14:47.847Z,13.50
2018-09-25T16:17:21.529Z,13.50
2018-09-25T16:19:55.125Z,13.40
2018-09-25T16:22:28.856Z,13.40
2018-09-25T16:25:02.614Z,13.40
2018-09-25T16:27:36.444Z,13.30
2018-09-25T16:30:10.415Z,13.30
2018-09-25T16:32:44.154Z,13.30
2018-09-25T16:35:17.986Z,13.30
2018-09-25T16:37:51.798Z,13.30
2018-09-25T16:40:25.605Z,13.20
2018-09-25T16:42:59.488Z,13.20
2018-09-25T16:45:33.094Z,13.10
2018-09-25T16:48:06.819Z,13.10
2018-09-25T16:50:40.377Z,13.00
2018-09-25T16:53:14.039Z,13.00
2018-09-25T16:55:47.664Z,13.00
2018-09-25T16:58:21.306Z,12.90
2018-09-25T17:00:55.105Z,12.80
2018-09-25T17:03:28.946Z,12.80
2018-09-25T17:06:02.586Z,12.70
2018-09-25T17:08:36.258Z,12.60
2018-09-25T17:11:10.571Z,12.50
2018-09-25T17:13:44.659Z,12.50
2018-09-25T17:16:19.308Z,12.40
2018-09-25T17:18:53.796Z,12.30
2018-09-25T17:21:27.608Z,12.30
2018-09-25T17:24:01.955Z,12.20
2018-09-25T17:26:36.036Z,12.20
2018-09-25T17:29:09.708Z,12.00
2018-09-25T17:31:43.355Z,12.00
2018-09-25T17:34:17.315Z,11.80
2018-09-25T17:36:51.022Z,11.70
2018-09-25T17:39:24.737Z,11.70
2018-09-25T17:41:58.518Z,11.60
2018-09-25T17:44:32.330Z,11.50
2018-09-25T17:47:06.018Z,11.50
2018-09-25T17:49:39.847Z,11.40
2018-09-25T17:52:13.524Z,11.30
2018-09-25T17:54:47.153Z,11.30
2018-09-25T17:57:21.017Z,11.20
2018-09-25T17:59:54.634Z,11.10
2018-09-25T18:02:28.512Z,11.00
2018-09-25T18:05:02.468Z,11.00
2018-09-25T18:07:36.173Z,10.90
2018-09-25T18:10:09.799Z,10.70
2018-09-25T18:12:43.663Z,10.60
2018-09-25T18:15:17.231Z,10.40
2018-09-25T18:17:50.890Z,10.30
2018-09-25T18:20:24.591Z,10.10
2018-09-25T18:22:58.334Z,10.00
2018-09-25T18:25:31.966Z,9.90
2018-09-25T18:28:05.975Z,9.90
2018-09-25T18:30:39.253Z,9.80
2018-09-25T18:33:12.860Z,9.70
2018-09-25T18:35:46.469Z,9.60
2018-09-25T18:38:20.158Z,9.50
2018-09-25T18:40:53.822Z,9.40
2018-09-25T18:43:27.601Z,9.30
2018-09-25T18:46:01.209Z,9.30
2018-09-25T18:48:34.978Z,9.30
2018-09-25T18:51:08.786Z,9.30
2018-09-25T18:53:42.554Z,9.30
2018-09-25T18:56:16.048Z,9.30
2018-09-25T18:58:49.863Z,9.20
2018-09-25T19:01:23.578Z,9.10
2018-09-25T19:03:57.496Z,9.10
2018-09-25T19:06:31.266Z,9.10
2018-09-25T19:09:05.053Z,9.10
2018-09-25T19:11:38.682Z,9.10
2018-09-25T19:14:12.354Z,9.00
2018-09-25T19:16:46.037Z,9.00
2018-09-25T19:19:19.728Z,9.00
2018-09-25T19:21:53.447Z,8.90
2018-09-25T19:24:27.070Z,8.90
2018-09-25T19:27:01.124Z,8.80
2018-09-25T19:29:34.701Z,8.70
2018-09-25T19:32:09.381Z,8.70
2018-09-25T19:34:43.262Z,8.70
2018-09-25T19:37:16.963Z,8.60
2018-09-25T19:39:50.611Z,8.60
2018-09-25T19:42:24.176Z,8.60
2018-09-25T19:44:57.951Z,8.50
2018-09-25T19:47:31.837Z,8.50
2018-09-25T19:50:05.439Z,8.40
2018-09-25T19:52:39.129Z,8.30
2018-09-25T19:55:12.849Z,8.30
2018-09-25T19:57:46.771Z,8.30
2018-09-25T20:00:20.299Z,8.20
2018-09-25T20:02:53.977Z,8.20
2018-09-25T20:05:27.842Z,8.20
2018-09-25T20:08:01.467Z,8.20
2018-09-25T20:10:35.399Z,8.20
2018-09-25T20:13:09.407Z,8.20
2018-09-25T20:15:43.026Z,8.10
2018-09-25T20:18:16.826Z,8.10
2018-09-25T20:20:50.634Z,8.10
2018-09-25T20:23:24.185Z,8.00
2018-09-25T20:25:57.837Z,8.00
2018-09-25T20:28:31.586Z,8.00
2018-09-25T20:31:05.309Z,8.00
2018-09-25T20:33:38.922Z,7.90
2018-09-25T20:36:12.869Z,7.90
2018-09-25T20:38:46.557Z,7.90
2018-09-25T20:41:20.322Z,7.90
2018-09-25T20:43:54.124Z,7.90
2018-09-25T20:46:27.819Z,7.90
2018-09-25T20:49:02.098Z,7.80
2018-09-25T20:51:35.854Z,7.80
2018-09-25T20:54:09.592Z,7.70
2018-09-25T20:56:43.371Z,7.70
2018-09-25T20:59:17.016Z,7.70
2018-09-25T21:01:50.837Z,7.70
2018-09-25T21:04:24.409Z,7.60
2018-09-25T21:06:58.153Z,7.50
2018-09-25T21:09:32.054Z,7.50
2018-09-25T21:12:05.702Z,7.40
2018-09-25T21:14:39.270Z,7.40
2018-09-25T21:17:13.117Z,7.30
2018-09-25T21:19:46.820Z,7.30
2018-09-25T21:22:20.465Z,7.30
2018-09-25T21:24:54.137Z,7.30
2018-09-25T21:27:27.703Z,7.20
2018-09-25T21:30:01.307Z,7.20
2018-09-25T21:32:34.916Z,7.10
2018-09-25T21:35:08.619Z,7.00
2018-09-25T21:37:42.113Z,7.00
2018-09-25T21:40:15.829Z,6.90
2018-09-25T21:42:49.377Z,6.90
2018-09-25T21:45:23.065Z,6.80
2018-09-25T21:47:56.838Z,6.80
2018-09-25T21:50:30.518Z,6.70
2018-09-25T21:53:03.976Z,6.70
2018-09-25T21:55:37.753Z,6.60
2018-09-25T21:58:11.399Z,6.60
2018-09-25T22:00:45.225Z,6.60
2018-09-25T22:03:25.905Z,6.60
2018-09-25T22:05:59.582Z,6.60
2018-09-25T22:08:33.239Z,6.60
2018-09-25T22:11:09.000Z,6.50
2018-09-25T22:13:42.780Z,6.40
2018-09-25T22:16:16.509Z,6.30
2018-09-25T22:18:50.358Z,6.30
2018-09-25T22:21:24.127Z,6.30
2018-09-25T22:23:57.742Z,6.30
2018-09-25T22:26:31.289Z,6.30
2018-09-25T22:29:05.022Z,6.20
2018-09-25T22:31:38.842Z,6.20
2018-09-25T22:34:12.830Z,6.20
2018-09-25T22:36:46.421Z,6.10
2018-09-25T22:39:20.052Z,6.10
2018-09-25T22:41:53.567Z,6.10
2018-09-25T22:44:27.163Z,6.00
2018-09-25T22:47:01.077Z,6.10
2018-09-25T22:49:34.857Z,6.00
2018-09-25T22:52:08.554Z,6.00
2018-09-25T22:54:42.334Z,6.00
2018-09-25T22:57:16.086Z,6.00
2018-09-25T22:59:49.842Z,5.90
2018-09-25T23:02:23.618Z,5.90
2018-09-25T23:04:57.354Z,5.80
2018-09-25T23:07:31.174Z,5.80
2018-09-25T23:10:04.857Z,5.80
2018-09-25T23:12:38.461Z,5.70
2018-09-25T23:15:12.446Z,5.70
2018-09-25T23:17:46.194Z,5.60
2018-09-25T23:20:20.094Z,5.60
2018-09-25T23:22:53.749Z,5.60
2018-09-25T23:25:27.407Z,5.60
2018-09-25T23:28:01.134Z,5.60
2018-09-25T23:30:34.916Z,5.60
2018-09-25T23:33:08.521Z,5.50
2018-09-25T23:35:42.145Z,5.50
2018-09-25T23:38:15.896Z,5.50
2018-09-25T23:41:03.426Z,5.40
2018-09-25T23:43:39.078Z,5.40
2018-09-25T23:46:11.587Z,5.40
2018-09-25T23:48:48.773Z,5.40
2018-09-25T23:51:25.191Z,5.40
2018-09-25T23:54:02.421Z,5.40
2018-09-25T23:56:36.852Z,5.40
2018-09-25T23:59:18.423Z,5.30
